createdAt,value
2022-11-15T00:02:06.653Z,11.86
2022-11-15T00:04:53.242Z,11.86
2022-11-15T00:07:55.245Z,11.85
2022-11-15T00:10:42.794Z,11.86
2022-11-15T00:13:30.647Z,11.83
2022-11-15T00:16:19.040Z,11.89
2022-11-15T00:19:05.674Z,11.92
2022-11-15T00:21:52.120Z,11.92
2022-11-15T00:24:38.579Z,11.89
2022-11-15T00:27:25.381Z,11.90
2022-11-15T00:30:13.724Z,11.90
2022-11-15T00:33:05.347Z,11.93
2022-11-15T00:35:51.784Z,11.86
2022-11-15T00:38:39.869Z,11.76
2022-11-15T00:41:26.574Z,11.78
2022-11-15T00:44:13.338Z,11.81
2022-11-15T00:47:02.827Z,11.73
2022-11-15T00:49:58.145Z,11.70
2022-11-15T00:52:51.598Z,11.67
2022-11-15T00:55:47.744Z,11.61
2022-11-15T00:58:34.536Z,11.53
2022-11-15T01:01:21.396Z,11.47
2022-11-15T01:04:08.173Z,11.47
2022-11-15T01:06:56.492Z,11.37
2022-11-15T01:09:43.188Z,11.38
2022-11-15T01:12:29.814Z,11.38
2022-11-15T01:15:16.905Z,11.38
2022-11-15T01:18:03.509Z,11.06
2022-11-15T01:20:50.005Z,11.12
2022-11-15T01:23:39.309Z,11.00
2022-11-15T01:26:27.074Z,11.00
2022-11-15T01:29:13.848Z,10.92
2022-11-15T01:32:00.306Z,10.80
2022-11-15T01:34:48.145Z,10.92
2022-11-15T01:37:35.100Z,10.91
2022-11-15T01:40:24.357Z,10.81
2022-11-15T01:43:30.785Z,10.82
2022-11-15T01:46:36.346Z,10.81
2022-11-15T01:49:25.480Z,10.68
2022-11-15T01:52:15.849Z,10.65
2022-11-15T01:55:09.873Z,10.45
2022-11-15T01:58:04.082Z,10.38
2022-11-15T02:00:51.962Z,10.43
2022-11-15T02:03:44.522Z,10.42
2022-11-15T02:06:31.395Z,10.42
2022-11-15T02:09:19.163Z,10.32
2022-11-15T02:12:07.448Z,10.05
2022-11-15T02:14:57.066Z,10.01
2022-11-15T02:18:01.184Z,10.12
2022-11-15T02:21:12.307Z,10.22
2022-11-15T02:24:19.408Z,10.00
2022-11-15T02:27:56.299Z,10.17
2022-11-15T02:31:17.636Z,10.08
2022-11-15T02:34:28.538Z,9.98
2022-11-15T02:37:30.557Z,10.00
2022-11-15T02:40:29.757Z,10.11
2022-11-15T02:43:45.258Z,10.13
2022-11-15T02:46:57.055Z,10.07
2022-11-15T02:49:47.605Z,9.91
2022-11-15T02:52:33.963Z,9.93
2022-11-15T02:55:35.173Z,10.10
2022-11-15T02:58:41.084Z,10.16
2022-11-15T03:01:41.064Z,10.14
2022-11-15T03:04:40.787Z,10.17
2022-11-15T03:07:31.889Z,10.12
2022-11-15T03:10:26.397Z,10.33
2022-11-15T03:13:23.807Z,10.27
2022-11-15T03:16:22.636Z,10.35
2022-11-15T03:19:31.094Z,10.42
2022-11-15T03:22:28.540Z,10.38
2022-11-15T03:25:31.520Z,10.50
2022-11-15T03:28:23.756Z,10.56
2022-11-15T03:31:26.679Z,10.56
2022-11-15T03:34:23.017Z,10.62
2022-11-15T03:37:12.304Z,10.62
2022-11-15T03:39:59.156Z,10.44
2022-11-15T03:42:55.920Z,10.23
2022-11-15T03:45:48.835Z,10.29
2022-11-15T03:48:40.537Z,10.47
2022-11-15T03:51:28.739Z,10.52
2022-11-15T03:54:16.170Z,10.59
2022-11-15T03:57:02.739Z,10.71
2022-11-15T03:59:49.344Z,10.63
2022-11-15T04:02:36.350Z,10.79
2022-11-15T04:05:25.961Z,10.92
2022-11-15T04:08:21.316Z,11.03
2022-11-15T04:11:26.258Z,11.15
2022-11-15T04:14:17.871Z,11.18
2022-11-15T04:17:26.180Z,11.18
2022-11-15T04:20:34.426Z,11.18
2022-11-15T04:23:41.792Z,11.25
2022-11-15T04:26:28.451Z,11.25
2022-11-15T04:29:32.755Z,11.16
2022-11-15T04:32:19.600Z,11.05
2022-11-15T04:35:06.963Z,11.07
2022-11-15T04:37:54.107Z,11.15
2022-11-15T04:40:42.017Z,11.07
2022-11-15T04:43:28.886Z,11.12
2022-11-15T04:46:16.434Z,11.21
2022-11-15T04:49:03.473Z,11.28
2022-11-15T04:51:49.857Z,11.24
2022-11-15T04:54:36.271Z,11.36
2022-11-15T04:57:24.805Z,11.37
2022-11-15T05:00:20.838Z,11.42
2022-11-15T05:03:27.113Z,11.39
2022-11-15T05:06:40.592Z,11.41
2022-11-15T05:09:27.328Z,11.46
2022-11-15T05:12:14.000Z,11.49
2022-11-15T05:15:02.307Z,11.51
2022-11-15T05:17:48.936Z,11.48
2022-11-15T05:20:35.348Z,11.49
2022-11-15T05:23:22.074Z,11.50
2022-11-15T05:26:09.780Z,11.50
2022-11-15T05:28:56.560Z,11.48
2022-11-15T05:31:44.890Z,11.47
2022-11-15T05:34:31.671Z,11.38
2022-11-15T05:37:18.212Z,11.47
2022-11-15T05:40:05.733Z,11.50
2022-11-15T05:42:52.486Z,11.52
2022-11-15T05:45:39.608Z,11.55
2022-11-15T05:48:28.194Z,11.56
2022-11-15T05:51:19.011Z,11.53
2022-11-15T05:54:16.994Z,11.51
2022-11-15T05:57:18.474Z,11.50
2022-11-15T06:00:07.182Z,11.55
2022-11-15T06:02:53.767Z,11.55
2022-11-15T06:05:41.955Z,11.65
2022-11-15T06:08:29.194Z,11.62
2022-11-15T06:11:16.253Z,11.59
2022-11-15T06:14:03.040Z,11.56
2022-11-15T06:16:49.760Z,11.46
2022-11-15T06:19:36.066Z,11.51
2022-11-15T06:22:23.889Z,11.49
2022-11-15T06:25:10.612Z,11.55
2022-11-15T06:27:59.005Z,11.69
2022-11-15T06:30:50.450Z,11.75
2022-11-15T06:33:40.639Z,11.74
2022-11-15T06:36:26.883Z,11.63
2022-11-15T06:39:14.959Z,11.71
2022-11-15T06:42:01.790Z,11.77
2022-11-15T06:44:54.687Z,11.78
2022-11-15T06:47:49.965Z,11.77
2022-11-15T06:50:36.368Z,11.67
2022-11-15T06:53:23.330Z,11.73
2022-11-15T06:56:11.111Z,11.72
2022-11-15T06:58:57.905Z,11.73
2022-11-15T07:01:44.624Z,11.66
2022-11-15T07:04:31.104Z,11.79
2022-11-15T07:07:17.652Z,11.92
2022-11-15T07:10:05.110Z,11.91
2022-11-15T07:12:53.612Z,11.87
2022-11-15T07:15:40.428Z,11.99
2022-11-15T07:18:28.406Z,11.90
2022-11-15T07:21:15.126Z,11.87
2022-11-15T07:24:01.554Z,11.98
2022-11-15T07:26:48.318Z,11.81
2022-11-15T07:29:36.834Z,11.75
2022-11-15T07:32:23.779Z,11.82
2022-11-15T07:35:26.429Z,11.86
2022-11-15T07:38:13.708Z,11.71
2022-11-15T07:41:02.075Z,11.83
2022-11-15T07:43:48.648Z,11.90
2022-11-15T07:46:36.493Z,11.90
2022-11-15T07:49:23.415Z,11.97
2022-11-15T07:52:10.374Z,11.93
2022-11-15T07:54:56.786Z,12.00
2022-11-15T07:57:43.908Z,12.06
2022-11-15T08:00:30.415Z,12.14
2022-11-15T08:03:19.508Z,12.07
2022-11-15T08:06:07.190Z,12.13
2022-11-15T08:08:53.780Z,12.10
2022-11-15T08:11:40.456Z,12.17
2022-11-15T08:14:27.344Z,12.19
2022-11-15T08:17:14.035Z,12.19
2022-11-15T08:20:02.730Z,12.17
2022-11-15T08:22:49.411Z,12.23
2022-11-15T08:25:47.581Z,12.30
2022-11-15T08:28:34.931Z,12.30
2022-11-15T08:31:22.072Z,12.37
2022-11-15T08:34:09.554Z,12.30
2022-11-15T08:36:57.339Z,12.45
2022-11-15T08:39:44.715Z,12.52
2022-11-15T08:42:31.421Z,12.42
2022-11-15T08:45:17.870Z,12.42
2022-11-15T08:48:05.283Z,12.51
2022-11-15T08:50:56.455Z,12.55
2022-11-15T08:53:45.572Z,12.58
2022-11-15T08:56:32.564Z,12.59
2022-11-15T08:59:18.893Z,12.49
2022-11-15T09:02:05.985Z,12.41
2022-11-15T09:04:52.837Z,12.42
2022-11-15T09:07:39.340Z,12.53
2022-11-15T09:10:27.867Z,12.62
2022-11-15T09:13:23.410Z,12.74
2022-11-15T09:16:13.359Z,12.60
2022-11-15T09:19:00.291Z,12.66
2022-11-15T09:21:47.193Z,12.77
2022-11-15T09:24:33.891Z,12.81
2022-11-15T09:27:21.938Z,12.89
2022-11-15T09:30:09.697Z,12.91
2022-11-15T09:32:56.705Z,12.93
2022-11-15T09:35:43.342Z,12.74
2022-11-15T09:38:30.432Z,12.75
2022-11-15T09:41:45.989Z,12.75
2022-11-15T09:44:46.824Z,12.75
2022-11-15T09:47:48.259Z,12.94
2022-11-15T09:50:44.749Z,12.88
2022-11-15T09:53:16.083Z,12.91
2022-11-15T09:55:53.563Z,13.05
2022-11-15T09:58:29.327Z,13.10
2022-11-15T10:01:02.424Z,13.12
2022-11-15T10:03:44.458Z,13.19
2022-11-15T10:06:30.721Z,13.25
2022-11-15T10:09:04.243Z,13.11
2022-11-15T10:11:38.992Z,13.19
2022-11-15T10:14:14.708Z,13.28
2022-11-15T10:17:17.418Z,13.31
2022-11-15T10:19:54.979Z,13.29
2022-11-15T10:22:42.227Z,13.32
2022-11-15T10:25:22.536Z,13.28
2022-11-15T10:27:56.791Z,13.13
2022-11-15T10:30:33.717Z,13.23
2022-11-15T10:33:16.551Z,13.32
2022-11-15T10:35:44.629Z,13.24
2022-11-15T10:38:13.897Z,13.23
2022-11-15T10:40:47.035Z,13.33
2022-11-15T10:43:19.808Z,13.36
2022-11-15T10:45:50.957Z,13.45
2022-11-15T10:48:29.347Z,13.50
2022-11-15T10:50:58.298Z,13.52
2022-11-15T10:53:33.640Z,13.54
2022-11-15T10:56:19.667Z,13.57
2022-11-15T10:58:55.575Z,13.65
2022-11-15T11:01:25.953Z,13.67
2022-11-15T11:04:03.163Z,13.65
2022-11-15T11:06:32.435Z,13.59
2022-11-15T11:09:02.392Z,13.53
2022-11-15T11:11:49.294Z,13.56
2022-11-15T11:14:26.919Z,13.57
2022-11-15T11:16:59.917Z,13.56
2022-11-15T11:19:46.968Z,13.58
2022-11-15T11:22:24.354Z,13.55
2022-11-15T11:25:15.787Z,13.59
2022-11-15T11:27:55.768Z,13.69
2022-11-15T11:30:32.313Z,13.62
2022-11-15T11:33:12.938Z,13.76
2022-11-15T11:35:52.214Z,13.80
2022-11-15T11:38:36.974Z,13.92
2022-11-15T11:41:20.487Z,13.97
2022-11-15T11:44:06.719Z,14.00
2022-11-15T11:46:58.421Z,14.02
2022-11-15T11:49:34.622Z,14.03
2022-11-15T11:52:10.597Z,14.00
2022-11-15T11:54:50.282Z,14.03
2022-11-15T11:57:27.798Z,14.09
2022-11-15T12:00:01.561Z,14.10
2022-11-15T12:02:33.865Z,14.17
2022-11-15T12:05:10.077Z,14.19
2022-11-15T12:07:42.109Z,14.28
2022-11-15T12:10:22.079Z,14.23
2022-11-15T12:12:57.728Z,14.18
2022-11-15T12:15:29.681Z,14.13
2022-11-15T12:17:59.152Z,14.19
2022-11-15T12:20:29.991Z,14.22
2022-11-15T12:23:03.828Z,14.26
2022-11-15T12:25:36.834Z,14.32
2022-11-15T12:28:14.089Z,14.34
2022-11-15T12:30:58.427Z,14.33
2022-11-15T12:33:35.204Z,14.26
2022-11-15T12:36:05.837Z,14.25
2022-11-15T12:38:57.939Z,14.32
2022-11-15T12:41:27.891Z,14.25
2022-11-15T12:43:57.010Z,14.26
2022-11-15T12:47:02.658Z,14.37
2022-11-15T12:49:47.709Z,14.43
2022-11-15T12:52:17.301Z,14.42
2022-11-15T12:55:07.227Z,14.43
2022-11-15T12:57:43.894Z,14.38
2022-11-15T13:00:41.487Z,14.48
2022-11-15T13:03:30.283Z,14.53
2022-11-15T13:06:08.503Z,14.46
2022-11-15T13:08:42.130Z,14.41
2022-11-15T13:11:28.568Z,14.71
2022-11-15T13:13:57.930Z,14.64
2022-11-15T13:16:27.219Z,14.65
2022-11-15T13:18:56.128Z,14.70
2022-11-15T13:21:44.011Z,14.73
2022-11-15T13:24:17.981Z,14.67
2022-11-15T13:26:46.089Z,14.68
2022-11-15T13:29:20.751Z,14.71
2022-11-15T13:31:49.438Z,14.45
2022-11-15T13:34:51.458Z,14.59
2022-11-15T13:37:32.167Z,14.47
2022-11-15T13:40:20.196Z,14.50
2022-11-15T13:42:48.470Z,14.37
2022-11-15T13:45:21.290Z,14.32
2022-11-15T13:47:55.636Z,14.24
2022-11-15T13:50:27.494Z,14.36
2022-11-15T13:53:04.517Z,14.37
2022-11-15T13:55:37.172Z,14.38
2022-11-15T13:58:14.321Z,14.50
2022-11-15T14:00:54.437Z,14.63
2022-11-15T14:03:33.646Z,14.44
2022-11-15T14:06:19.509Z,14.55
2022-11-15T14:09:23.480Z,14.49
2022-11-15T14:11:56.154Z,14.49
2022-11-15T14:14:43.292Z,14.49
2022-11-15T14:17:36.015Z,14.53
2022-11-15T14:20:20.980Z,14.53
2022-11-15T14:22:56.228Z,14.59
2022-11-15T14:25:25.575Z,14.61
2022-11-15T14:28:30.069Z,14.73
2022-11-15T14:31:01.151Z,14.69
2022-11-15T14:33:33.812Z,14.74
2022-11-15T14:36:13.842Z,14.67
2022-11-15T14:38:49.170Z,14.68
2022-11-15T14:41:30.912Z,14.64
2022-11-15T14:44:14.984Z,14.55
2022-11-15T14:46:48.516Z,14.44
2022-11-15T14:49:24.242Z,14.36
2022-11-15T14:52:00.907Z,14.41
2022-11-15T14:54:43.272Z,14.41
2022-11-15T14:57:21.622Z,14.42
2022-11-15T14:59:54.588Z,14.36
2022-11-15T15:02:29.183Z,14.34
2022-11-15T15:05:02.584Z,14.37
2022-11-15T15:07:42.267Z,14.38
2022-11-15T15:10:38.319Z,14.34
2022-11-15T15:13:00.147Z,14.33
2022-11-15T15:15:34.357Z,14.33
2022-11-15T15:18:02.414Z,14.29
2022-11-15T15:20:32.073Z,14.30
2022-11-15T15:23:05.592Z,14.28
2022-11-15T15:25:35.031Z,14.42
2022-11-15T15:28:03.493Z,14.26
2022-11-15T15:30:35.089Z,14.25
2022-11-15T15:33:03.639Z,14.24
2022-11-15T15:35:35.695Z,14.23
2022-11-15T15:38:05.690Z,14.24
2022-11-15T15:40:35.103Z,14.15
2022-11-15T15:43:03.660Z,14.11
2022-11-15T15:45:33.273Z,14.09
2022-11-15T15:48:01.732Z,14.06
2022-11-15T15:50:32.183Z,14.06
2022-11-15T15:53:09.113Z,14.07
2022-11-15T15:56:16.205Z,14.05
2022-11-15T15:58:44.736Z,14.04
2022-11-15T16:01:16.162Z,14.04
2022-11-15T16:03:44.674Z,14.03
2022-11-15T16:06:35.761Z,14.09
2022-11-15T16:09:15.199Z,14.01
2022-11-15T16:11:45.980Z,13.97
2022-11-15T16:14:14.960Z,13.93
2022-11-15T16:16:43.857Z,13.94
2022-11-15T16:19:13.304Z,13.90
2022-11-15T16:21:41.437Z,13.88
2022-11-15T16:24:11.256Z,13.84
2022-11-15T16:26:40.041Z,13.85
2022-11-15T16:29:10.150Z,13.84
2022-11-15T16:31:38.176Z,13.85
2022-11-15T16:34:07.232Z,13.82
2022-11-15T16:36:36.802Z,13.87
2022-11-15T16:39:05.269Z,13.86
2022-11-15T16:41:35.089Z,13.85
2022-11-15T16:44:03.091Z,13.84
2022-11-15T16:46:31.121Z,13.85
2022-11-15T16:48:59.328Z,13.82
2022-11-15T16:51:27.431Z,13.84
2022-11-15T16:53:55.491Z,13.87
2022-11-15T16:56:27.021Z,13.88
2022-11-15T16:58:58.562Z,13.84
2022-11-15T17:01:28.187Z,13.83
2022-11-15T17:03:56.782Z,13.84
2022-11-15T17:06:26.898Z,13.83
2022-11-15T17:08:56.598Z,13.87
2022-11-15T17:11:24.629Z,13.85
2022-11-15T17:13:53.283Z,13.83
2022-11-15T17:16:22.951Z,13.83
2022-11-15T17:18:53.342Z,13.82
2022-11-15T17:21:23.163Z,13.83
2022-11-15T17:23:51.146Z,13.80
2022-11-15T17:26:39.180Z,13.85
2022-11-15T17:29:08.893Z,13.86
2022-11-15T17:31:38.898Z,13.87
2022-11-15T17:34:08.371Z,13.86
2022-11-15T17:36:36.987Z,13.83
2022-11-15T17:39:05.537Z,13.81
2022-11-15T17:41:33.861Z,13.86
2022-11-15T17:44:03.790Z,13.89
2022-11-15T17:46:36.464Z,13.89
2022-11-15T17:49:06.273Z,13.76
2022-11-15T17:51:34.598Z,13.82
2022-11-15T17:54:03.803Z,13.84
2022-11-15T17:56:33.714Z,13.84
2022-11-15T17:59:02.303Z,13.89
2022-11-15T18:01:32.198Z,13.85
2022-11-15T18:04:02.175Z,13.84
2022-11-15T18:06:33.909Z,13.86
2022-11-15T18:09:02.315Z,13.77
2022-11-15T18:11:32.973Z,13.84
2022-11-15T18:14:04.468Z,13.84
2022-11-15T18:16:35.316Z,13.88
2022-11-15T18:19:08.901Z,13.90
2022-11-15T18:21:56.691Z,13.84
2022-11-15T18:24:26.060Z,13.78
2022-11-15T18:26:54.662Z,13.82
2022-11-15T18:29:24.584Z,13.78
2022-11-15T18:31:55.744Z,13.76
2022-11-15T18:34:24.777Z,13.75
2022-11-15T18:36:54.773Z,13.74
2022-11-15T18:39:22.962Z,13.74
2022-11-15T18:41:51.775Z,13.73
2022-11-15T18:44:19.989Z,13.77
2022-11-15T18:46:51.173Z,13.69
2022-11-15T18:49:20.297Z,13.65
2022-11-15T18:51:49.559Z,13.70
2022-11-15T18:54:19.161Z,13.70
2022-11-15T18:56:47.721Z,13.64
2022-11-15T18:59:16.800Z,13.64
2022-11-15T19:01:48.320Z,13.67
2022-11-15T19:04:18.565Z,13.71
2022-11-15T19:06:48.735Z,13.71
2022-11-15T19:09:19.925Z,13.69
2022-11-15T19:11:51.593Z,13.69
2022-11-15T19:14:24.347Z,13.68
2022-11-15T19:16:54.671Z,13.70
2022-11-15T19:19:25.226Z,13.66
2022-11-15T19:21:54.119Z,13.65
2022-11-15T19:24:23.428Z,13.65
2022-11-15T19:26:51.590Z,13.63
2022-11-15T19:29:19.613Z,13.67
2022-11-15T19:31:48.853Z,13.58
2022-11-15T19:34:17.931Z,13.62
2022-11-15T19:36:46.492Z,13.67
2022-11-15T19:39:18.040Z,13.71
2022-11-15T19:41:47.850Z,13.69
2022-11-15T19:44:16.593Z,13.67
2022-11-15T19:46:45.382Z,13.71
2022-11-15T19:49:14.633Z,13.72
2022-11-15T19:51:45.601Z,13.72
2022-11-15T19:54:14.036Z,13.78
2022-11-15T19:56:42.163Z,13.76
2022-11-15T19:59:13.545Z,13.74
2022-11-15T20:01:42.571Z,13.78
2022-11-15T20:04:10.912Z,13.78
2022-11-15T20:06:41.295Z,13.70
2022-11-15T20:09:12.401Z,13.61
2022-11-15T20:11:40.323Z,13.61
2022-11-15T20:14:09.738Z,13.65
2022-11-15T20:16:39.331Z,13.69
2022-11-15T20:19:08.664Z,13.66
2022-11-15T20:21:37.051Z,13.70
2022-11-15T20:24:05.744Z,13.69
2022-11-15T20:26:35.617Z,13.71
2022-11-15T20:29:04.023Z,13.75
2022-11-15T20:31:33.078Z,13.71
2022-11-15T20:34:02.529Z,13.70
2022-11-15T20:36:30.468Z,13.70
2022-11-15T20:38:59.735Z,13.73
2022-11-15T20:41:28.554Z,13.69
2022-11-15T20:43:56.723Z,13.65
2022-11-15T20:46:24.676Z,13.65
2022-11-15T20:48:52.646Z,13.59
2022-11-15T20:51:22.227Z,13.65
2022-11-15T20:53:50.752Z,13.60
2022-11-15T20:56:21.156Z,13.60
2022-11-15T20:58:50.805Z,13.61
2022-11-15T21:01:23.741Z,13.64
2022-11-15T21:03:53.686Z,13.67
2022-11-15T21:06:24.460Z,13.65
2022-11-15T21:09:11.441Z,13.67
2022-11-15T21:11:57.799Z,13.75
2022-11-15T21:14:26.251Z,13.69
2022-11-15T21:16:54.318Z,13.70
2022-11-15T21:19:28.779Z,13.69
2022-11-15T21:22:02.576Z,13.67
2022-11-15T21:24:31.222Z,13.66
2022-11-15T21:26:59.824Z,13.63
2022-11-15T21:29:28.604Z,13.67
2022-11-15T21:31:56.691Z,13.52
2022-11-15T21:34:24.978Z,13.54
2022-11-15T21:36:53.107Z,13.49
2022-11-15T21:39:22.421Z,13.51
2022-11-15T21:41:50.293Z,13.52
2022-11-15T21:44:18.392Z,13.46
2022-11-15T21:46:46.371Z,13.52
2022-11-15T21:49:14.351Z,13.49
2022-11-15T21:51:42.312Z,13.48
2022-11-15T21:54:10.437Z,13.46
2022-11-15T21:56:39.891Z,13.44
2022-11-15T21:59:07.840Z,13.46
2022-11-15T22:01:53.732Z,13.46
2022-11-15T22:04:24.015Z,13.46
2022-11-15T22:06:52.354Z,13.44
2022-11-15T22:09:20.586Z,13.48
2022-11-15T22:11:50.137Z,13.44
2022-11-15T22:14:18.468Z,13.41
2022-11-15T22:16:46.774Z,13.43
2022-11-15T22:19:15.224Z,13.45
2022-11-15T22:21:43.232Z,13.45
2022-11-15T22:24:11.607Z,13.42
2022-11-15T22:26:39.633Z,13.37
2022-11-15T22:29:08.938Z,13.38
2022-11-15T22:31:36.943Z,13.41
2022-11-15T22:34:05.075Z,13.37
2022-11-15T22:36:47.008Z,13.40
2022-11-15T22:39:21.096Z,13.43
2022-11-15T22:41:49.088Z,13.42
2022-11-15T22:44:18.394Z,13.37
2022-11-15T22:46:46.440Z,13.41
2022-11-15T22:49:14.948Z,13.51
2022-11-15T22:51:42.906Z,13.49
2022-11-15T22:54:10.835Z,13.52
2022-11-15T22:56:38.930Z,13.54
2022-11-15T22:59:07.199Z,13.60
2022-11-15T23:01:36.629Z,13.48
2022-11-15T23:04:04.925Z,13.50
2022-11-15T23:06:33.144Z,13.54
2022-11-15T23:09:01.115Z,13.57
2022-11-15T23:11:46.460Z,13.56
2022-11-15T23:14:14.844Z,13.57
2022-11-15T23:16:44.813Z,13.49
2022-11-15T23:19:13.998Z,13.54
2022-11-15T23:22:02.175Z,13.60
2022-11-15T23:24:31.509Z,13.63
2022-11-15T23:27:01.590Z,13.63
2022-11-15T23:29:30.841Z,13.66
2022-11-15T23:32:17.798Z,13.70
2022-11-15T23:34:47.408Z,13.66
2022-11-15T23:37:16.611Z,13.71
2022-11-15T23:39:45.023Z,13.63
2022-11-15T23:42:19.713Z,13.65
2022-11-15T23:44:50.007Z,13.64
2022-11-15T23:47:19.573Z,13.58
2022-11-15T23:49:47.691Z,13.58
2022-11-15T23:52:16.879Z,13.59
2022-11-15T23:54:45.404Z,13.60
2022-11-15T23:57:13.983Z,13.59
2022-11-15T23:59:44.186Z,13.58
